Canberra International Airport

Airport
ICAO code: 
YSCB
IATA Code: 
CBR
Summary
ICAO Region: 
APAC
Territory: 
Location: 
Canberra, Australian Capital Territory
Serving: 
Canberra
Elevation: 
1888 ft
Coordinates: 
Aerial View: 
35° 18' 18.838" S, 149° 11' 36.216" E
Metar
Observation
YSCB 210230Z AUTO 07009KT 9999 // SCT033 SCT043 OVC049 23/12 Q1029
Station
Canberra
Date/Time
2022-01-21 02:30:00
Wind direction
70°
Wind speed
09 kts
Lowest cloud amount
scattered clouds
Temperature
23°C
Dew point
12°C
Humidity
49%
QNH
1029 hPa
Weather condition
n/a

Runways

Designator Length Width Surface Rops
12/30 1679 45 ASP Yes/Yes
17/35 2683 45 ASP Yes/Yes
Airport map: 
Aerial View: 

Accidents and Serious Incidents at or in the vicinity of YSCB

SKYbrary Partners:

Safety knowledge contributed by: